createdAt,value
2018-06-02T00:01:25.260Z,19.05
2018-06-02T00:03:51.161Z,19.01
2018-06-02T00:06:17.505Z,19.04
2018-06-02T00:08:43.510Z,19.03
2018-06-02T00:11:09.574Z,19.01
2018-06-02T00:13:35.589Z,19.00
2018-06-02T00:16:01.472Z,18.95
2018-06-02T00:18:27.362Z,18.91
2018-06-02T00:20:53.386Z,18.89
2018-06-02T00:23:21.343Z,18.90
2018-06-02T00:25:47.264Z,18.88
2018-06-02T00:28:13.194Z,18.88
2018-06-02T00:30:39.084Z,18.87
2018-06-02T00:33:05.075Z,18.84
2018-06-02T00:35:31.088Z,18.82
2018-06-02T00:37:56.975Z,18.86
2018-06-02T00:40:22.843Z,18.82
2018-06-02T00:42:48.780Z,18.80
2018-06-02T00:45:14.740Z,18.72
2018-06-02T00:47:40.713Z,18.69
2018-06-02T00:50:06.631Z,18.66
2018-06-02T00:52:32.560Z,18.66
2018-06-02T00:55:04.613Z,18.67
2018-06-02T00:57:30.677Z,18.67
2018-06-02T00:59:56.631Z,18.67
2018-06-02T01:02:22.506Z,18.63
2018-06-02T01:04:49.430Z,18.58
2018-06-02T01:07:15.335Z,18.54
2018-06-02T01:09:41.283Z,18.49
2018-06-02T01:12:07.578Z,18.46
2018-06-02T01:14:33.462Z,18.51
2018-06-02T01:16:59.333Z,18.50
2018-06-02T01:19:25.278Z,18.49
2018-06-02T01:21:51.297Z,18.46
2018-06-02T01:24:17.267Z,18.43
2018-06-02T01:26:43.499Z,18.44
2018-06-02T01:29:09.389Z,18.43
2018-06-02T01:31:35.280Z,18.50
2018-06-02T01:34:02.128Z,18.50
2018-06-02T01:36:28.145Z,18.48
2018-06-02T01:38:54.034Z,18.46
2018-06-02T01:41:20.260Z,18.47
2018-06-02T01:43:46.132Z,18.45
2018-06-02T01:46:12.129Z,18.54
2018-06-02T01:48:38.217Z,18.56
2018-06-02T01:51:04.102Z,18.57
2018-06-02T01:53:30.001Z,18.54
2018-06-02T01:55:55.986Z,18.55
2018-06-02T01:58:22.017Z,18.54
2018-06-02T02:00:47.979Z,18.56
2018-06-02T02:03:13.912Z,18.56
2018-06-02T02:05:39.812Z,18.60
2018-06-02T02:08:05.693Z,18.60
2018-06-02T02:10:31.718Z,18.61
2018-06-02T02:12:57.721Z,18.62
2018-06-02T02:15:23.633Z,18.59
2018-06-02T02:17:49.864Z,18.57
2018-06-02T02:20:15.761Z,18.52
2018-06-02T02:22:41.769Z,18.54
2018-06-02T02:25:07.784Z,18.51
2018-06-02T02:27:33.753Z,18.51
2018-06-02T02:29:59.645Z,18.53
2018-06-02T02:32:25.591Z,18.52
2018-06-02T02:34:51.572Z,18.52
2018-06-02T02:37:18.245Z,18.54
2018-06-02T02:39:44.205Z,18.55
2018-06-02T02:42:10.118Z,18.57
2018-06-02T02:44:36.016Z,18.55
2018-06-02T02:47:02.323Z,18.56
2018-06-02T02:49:28.287Z,18.52
2018-06-02T02:51:54.167Z,18.52
2018-06-02T02:54:20.099Z,18.46
2018-06-02T02:56:46.960Z,18.47
2018-06-02T02:59:12.936Z,18.48
2018-06-02T03:01:38.996Z,18.41
2018-06-02T03:04:04.903Z,18.42
2018-06-02T03:06:30.799Z,18.37
2018-06-02T03:08:56.754Z,18.36
2018-06-02T03:11:22.727Z,18.33
2018-06-02T03:13:48.720Z,18.30
2018-06-02T03:16:14.975Z,18.28
2018-06-02T03:18:40.920Z,18.26
2018-06-02T03:21:06.803Z,18.25
2018-06-02T03:23:32.830Z,18.27
2018-06-02T03:25:58.783Z,18.27
2018-06-02T03:28:24.663Z,18.30
2018-06-02T03:30:50.903Z,18.32
2018-06-02T03:33:16.787Z,18.39
2018-06-02T03:35:42.778Z,18.38
2018-06-02T03:38:09.092Z,18.38
2018-06-02T03:40:34.996Z,18.38
2018-06-02T03:43:01.696Z,18.42
2018-06-02T03:45:27.791Z,18.46
2018-06-02T03:47:53.782Z,18.50
2018-06-02T03:50:19.782Z,18.53
2018-06-02T03:52:45.687Z,18.65
2018-06-02T03:55:11.613Z,18.71
2018-06-02T03:57:37.490Z,18.80
2018-06-02T04:00:03.536Z,18.84
2018-06-02T04:02:29.514Z,18.90
2018-06-02T04:04:55.414Z,18.95
2018-06-02T04:07:21.320Z,19.04
2018-06-02T04:09:47.230Z,19.12
2018-06-02T04:12:13.174Z,19.19
2018-06-02T04:14:39.150Z,19.28
2018-06-02T04:17:05.023Z,19.28
2018-06-02T04:19:30.917Z,19.32
2018-06-02T04:21:56.830Z,19.40
2018-06-02T04:24:22.730Z,19.42
2018-06-02T04:26:48.645Z,19.41
2018-06-02T04:29:14.572Z,19.52
2018-06-02T04:31:40.480Z,19.52
2018-06-02T04:34:06.370Z,19.59
2018-06-02T04:36:32.309Z,19.60
2018-06-02T04:38:58.213Z,19.64
2018-06-02T04:41:24.954Z,19.71
2018-06-02T04:43:50.874Z,19.71
2018-06-02T04:46:16.780Z,19.66
2018-06-02T04:48:42.663Z,19.72
2018-06-02T04:51:08.618Z,19.74
2018-06-02T04:53:34.551Z,19.74
2018-06-02T04:56:00.392Z,19.82
2018-06-02T04:58:26.431Z,19.84
2018-06-02T05:00:52.301Z,19.92
2018-06-02T05:03:18.216Z,19.94
2018-06-02T05:05:44.146Z,20.04
2018-06-02T05:08:10.866Z,20.17
2018-06-02T05:10:36.852Z,20.25
2018-06-02T05:13:02.801Z,20.26
2018-06-02T05:15:28.694Z,20.34
2018-06-02T05:17:54.610Z,20.43
2018-06-02T05:20:20.568Z,20.42
2018-06-02T05:22:46.552Z,20.46
2018-06-02T05:25:12.666Z,20.52
2018-06-02T05:27:38.583Z,20.60
2018-06-02T05:30:05.305Z,20.62
2018-06-02T05:32:31.188Z,20.66
2018-06-02T05:34:57.224Z,20.65
2018-06-02T05:37:23.149Z,20.71
2018-06-02T05:39:49.025Z,20.78
2018-06-02T05:42:15.868Z,20.73
2018-06-02T05:44:41.759Z,20.66
2018-06-02T05:47:08.361Z,20.66
2018-06-02T05:49:34.299Z,20.69
2018-06-02T05:52:00.177Z,20.72
2018-06-02T05:54:26.073Z,20.76
2018-06-02T05:56:52.039Z,20.62
2018-06-02T05:59:17.999Z,20.73
2018-06-02T06:01:44.015Z,20.76
2018-06-02T06:04:09.928Z,20.77
2018-06-02T06:06:35.836Z,20.62
2018-06-02T06:09:01.732Z,20.62
2018-06-02T06:11:29.165Z,20.74
2018-06-02T06:13:55.039Z,20.78
2018-06-02T06:16:20.943Z,20.64
2018-06-02T06:18:47.193Z,20.72
2018-06-02T06:21:13.109Z,20.87
2018-06-02T06:23:39.100Z,20.88
2018-06-02T06:26:05.029Z,21.03
2018-06-02T06:28:30.919Z,21.19
2018-06-02T06:30:56.821Z,21.22
2018-06-02T06:33:22.748Z,21.44
2018-06-02T06:35:48.708Z,21.61
2018-06-02T06:38:14.598Z,21.66
2018-06-02T06:40:40.528Z,21.68
2018-06-02T06:43:06.435Z,21.83
2018-06-02T06:45:32.353Z,22.05
2018-06-02T06:47:58.556Z,22.11
2018-06-02T06:50:24.496Z,22.18
2018-06-02T06:52:50.393Z,22.20
2018-06-02T06:55:16.607Z,22.32
2018-06-02T06:57:42.482Z,22.35
2018-06-02T07:00:09.257Z,22.36
2018-06-02T07:02:35.200Z,22.21
2018-06-02T07:05:01.091Z,22.37
2018-06-02T07:07:27.034Z,22.46
2018-06-02T07:09:52.991Z,22.51
2018-06-02T07:12:19.814Z,22.59
2018-06-02T07:14:45.676Z,22.47
2018-06-02T07:17:11.619Z,22.58
2018-06-02T07:19:37.505Z,22.75
2018-06-02T07:22:03.398Z,23.01
2018-06-02T07:24:29.414Z,23.02
2018-06-02T07:26:55.301Z,22.97
2018-06-02T07:29:21.190Z,22.95
2018-06-02T07:31:47.111Z,23.00
2018-06-02T07:34:13.063Z,23.21
2018-06-02T07:36:39.029Z,23.30
2018-06-02T07:39:04.997Z,23.21
2018-06-02T07:41:31.536Z,23.22
2018-06-02T07:43:57.408Z,23.11
2018-06-02T07:46:23.368Z,23.09
2018-06-02T07:48:49.348Z,23.16
2018-06-02T07:51:15.249Z,22.96
2018-06-02T07:53:41.164Z,23.02
2018-06-02T07:56:07.040Z,23.24
2018-06-02T07:58:32.918Z,23.41
2018-06-02T08:00:58.962Z,23.55
2018-06-02T08:03:24.900Z,23.42
2018-06-02T08:05:50.768Z,23.47
2018-06-02T08:08:16.708Z,23.46
2018-06-02T08:10:42.614Z,23.59
2018-06-02T08:13:08.625Z,23.75
2018-06-02T08:15:34.548Z,23.88
2018-06-02T08:18:00.446Z,24.17
2018-06-02T08:20:26.456Z,24.49
2018-06-02T08:22:52.393Z,24.56
2018-06-02T08:25:18.365Z,25.10
2018-06-02T08:27:44.261Z,24.96
2018-06-02T08:30:10.571Z,24.94
2018-06-02T08:32:36.449Z,25.25
2018-06-02T08:35:02.399Z,25.20
2018-06-02T08:37:28.419Z,25.33
2018-06-02T08:39:54.454Z,25.58
2018-06-02T08:42:20.339Z,25.86
2018-06-02T08:44:46.293Z,25.76
2018-06-02T08:47:12.188Z,26.25
2018-06-02T08:49:38.175Z,26.43
2018-06-02T08:52:04.133Z,26.13
2018-06-02T08:54:30.068Z,26.58
2018-06-02T08:56:55.942Z,26.99
2018-06-02T08:59:21.892Z,27.14
2018-06-02T09:01:47.917Z,27.11
2018-06-02T09:04:13.809Z,26.99
2018-06-02T09:06:39.756Z,26.70
2018-06-02T09:09:05.706Z,26.56
2018-06-02T09:11:31.575Z,26.59
2018-06-02T09:13:57.620Z,26.96
2018-06-02T09:16:23.497Z,26.68
2018-06-02T09:18:49.390Z,26.84
2018-06-02T09:21:15.344Z,27.35
2018-06-02T09:23:41.203Z,27.44
2018-06-02T09:26:07.401Z,27.67
2018-06-02T09:28:33.529Z,28.70
2018-06-02T09:30:59.420Z,28.85
2018-06-02T09:33:25.347Z,28.50
2018-06-02T09:35:51.294Z,28.87
2018-06-02T09:38:17.279Z,28.58
2018-06-02T09:40:43.171Z,28.53
2018-06-02T09:43:09.151Z,28.27
2018-06-02T09:45:35.055Z,27.96
2018-06-02T09:48:00.949Z,27.40
2018-06-02T09:50:26.980Z,27.25
2018-06-02T09:52:52.899Z,27.22
2018-06-02T09:55:18.769Z,26.77
2018-06-02T09:57:45.061Z,26.99
2018-06-02T10:00:10.965Z,27.05
2018-06-02T10:02:36.924Z,26.66
2018-06-02T10:05:02.894Z,26.88
2018-06-02T10:07:28.775Z,27.00
2018-06-02T10:09:54.680Z,27.33
2018-06-02T10:12:20.638Z,27.48
2018-06-02T10:14:46.611Z,27.89
2018-06-02T10:17:12.530Z,28.15
2018-06-02T10:19:38.447Z,27.70
2018-06-02T10:22:04.355Z,27.74
2018-06-02T10:24:30.232Z,27.29
2018-06-02T10:26:56.659Z,27.51
2018-06-02T10:29:22.575Z,27.46
2018-06-02T10:31:48.478Z,27.42
2018-06-02T10:34:14.974Z,28.05
2018-06-02T10:36:40.894Z,28.60
2018-06-02T10:39:06.879Z,29.06
2018-06-02T10:41:32.853Z,29.07
2018-06-02T10:43:58.811Z,29.83
2018-06-02T10:46:24.722Z,30.45
2018-06-02T10:48:50.713Z,31.02
2018-06-02T10:51:16.749Z,31.40
2018-06-02T10:53:42.626Z,31.73
2018-06-02T10:56:08.576Z,31.60
2018-06-02T10:58:34.469Z,31.82
2018-06-02T11:01:00.338Z,31.15
2018-06-02T11:03:26.645Z,31.14
2018-06-02T11:05:52.549Z,31.85
2018-06-02T11:08:18.437Z,32.08
2018-06-02T11:10:44.375Z,31.99
2018-06-02T11:13:10.268Z,32.34
2018-06-02T11:15:36.313Z,31.79
2018-06-02T11:18:02.498Z,32.00
2018-06-02T11:20:28.377Z,31.84
2018-06-02T11:22:54.286Z,31.63
2018-06-02T11:25:20.218Z,31.56
2018-06-02T11:27:46.204Z,31.39
2018-06-02T11:30:12.067Z,31.83
2018-06-02T11:32:38.282Z,32.72
2018-06-02T11:35:04.228Z,31.74
2018-06-02T11:37:30.136Z,30.85
2018-06-02T11:39:56.949Z,31.14
2018-06-02T11:42:22.835Z,30.95
2018-06-02T11:44:48.721Z,31.12
2018-06-02T11:47:14.661Z,29.78
2018-06-02T11:49:40.526Z,30.15
2018-06-02T11:52:06.559Z,31.10
2018-06-02T11:54:32.519Z,30.23
2018-06-02T11:56:58.435Z,30.28
2018-06-02T11:59:24.299Z,29.42
2018-06-02T12:01:50.271Z,28.93
2018-06-02T12:04:16.227Z,28.45
2018-06-02T12:06:42.108Z,28.13
2018-06-02T12:09:08.075Z,27.86
2018-06-02T12:11:34.005Z,27.91
2018-06-02T12:13:59.886Z,27.72
2018-06-02T12:16:25.930Z,27.95
2018-06-02T12:18:51.819Z,28.78
2018-06-02T12:21:17.726Z,28.83
2018-06-02T12:23:43.659Z,28.58
2018-06-02T12:26:09.543Z,28.47
2018-06-02T12:28:35.508Z,28.11
2018-06-02T12:31:01.893Z,27.83
2018-06-02T12:33:27.807Z,27.73
2018-06-02T12:35:53.761Z,27.79
2018-06-02T12:38:19.716Z,27.47
2018-06-02T12:40:46.620Z,27.16
2018-06-02T12:43:12.519Z,27.32
2018-06-02T12:45:38.455Z,27.19
2018-06-02T12:48:04.363Z,27.19
2018-06-02T12:50:30.875Z,27.19
2018-06-02T12:52:56.868Z,27.50
2018-06-02T12:55:22.759Z,27.40
2018-06-02T12:57:48.649Z,27.27
2018-06-02T13:00:14.901Z,26.95
2018-06-02T13:02:40.833Z,26.83
2018-06-02T13:05:06.891Z,26.55
2018-06-02T13:07:32.836Z,26.58
2018-06-02T13:09:58.704Z,26.16
2018-06-02T13:12:24.632Z,26.28
2018-06-02T13:14:51.359Z,26.33
2018-06-02T13:17:17.330Z,26.56
2018-06-02T13:19:43.203Z,26.45
2018-06-02T13:22:09.137Z,26.34
2018-06-02T13:24:35.011Z,26.38
2018-06-02T13:27:00.888Z,26.13
2018-06-02T13:29:27.708Z,26.11
2018-06-02T13:31:53.590Z,25.72
2018-06-02T13:34:20.323Z,25.88
2018-06-02T13:36:46.597Z,25.81
2018-06-02T13:39:12.476Z,25.78
2018-06-02T13:41:39.070Z,25.77
2018-06-02T13:44:04.995Z,26.00
2018-06-02T13:46:30.901Z,26.19
2018-06-02T13:48:56.772Z,26.43
2018-06-02T13:51:22.952Z,26.57
2018-06-02T13:53:48.915Z,26.84
2018-06-02T13:56:14.936Z,26.97
2018-06-02T13:58:40.907Z,27.23
2018-06-02T14:01:06.816Z,27.24
2018-06-02T14:03:32.694Z,27.52
2018-06-02T14:05:58.722Z,27.73
2018-06-02T14:08:24.664Z,27.70
2018-06-02T14:10:50.534Z,27.81
2018-06-02T14:13:16.490Z,27.43
2018-06-02T14:15:42.440Z,27.57
2018-06-02T14:18:08.413Z,27.10
2018-06-02T14:20:34.487Z,26.86
2018-06-02T14:23:00.390Z,26.91
2018-06-02T14:25:26.373Z,26.90
2018-06-02T14:27:52.369Z,26.83
2018-06-02T14:30:18.352Z,27.00
2018-06-02T14:32:44.309Z,26.87
2018-06-02T14:35:10.541Z,26.68
2018-06-02T14:37:36.420Z,26.51
2018-06-02T14:40:02.342Z,26.19
2018-06-02T14:42:28.401Z,25.99
2018-06-02T14:44:54.330Z,25.85
2018-06-02T14:47:20.211Z,25.59
2018-06-02T14:49:46.154Z,25.48
2018-06-02T14:52:12.037Z,25.48
2018-06-02T14:54:38.044Z,25.36
2018-06-02T14:57:04.045Z,25.32
2018-06-02T14:59:29.920Z,25.29
2018-06-02T15:01:55.803Z,25.21
2018-06-02T15:04:22.351Z,25.14
2018-06-02T15:06:48.291Z,25.09
2018-06-02T15:09:14.257Z,25.15
2018-06-02T15:11:41.137Z,25.23
2018-06-02T15:14:07.018Z,25.35
2018-06-02T15:16:32.962Z,25.39
2018-06-02T15:18:58.995Z,25.25
2018-06-02T15:21:26.265Z,25.31
2018-06-02T15:23:52.240Z,25.13
2018-06-02T15:26:18.218Z,25.27
2018-06-02T15:28:44.120Z,25.11
2018-06-02T15:31:10.145Z,25.26
2018-06-02T15:33:36.380Z,25.19
2018-06-02T15:36:02.512Z,25.31
2018-06-02T15:38:28.443Z,25.50
2018-06-02T15:40:54.360Z,25.55
2018-06-02T15:43:20.250Z,25.64
2018-06-02T15:45:46.144Z,25.63
2018-06-02T15:48:12.129Z,25.48
2018-06-02T15:50:38.020Z,25.52
2018-06-02T15:53:03.937Z,25.46
2018-06-02T15:55:29.940Z,25.51
2018-06-02T15:57:55.842Z,25.40
2018-06-02T16:00:21.789Z,25.37
2018-06-02T16:02:47.711Z,25.25
2018-06-02T16:05:13.599Z,25.32
2018-06-02T16:07:39.463Z,25.07
2018-06-02T16:10:05.388Z,24.96
2018-06-02T16:12:31.278Z,25.01
2018-06-02T16:14:57.140Z,24.84
2018-06-02T16:17:23.154Z,24.80
2018-06-02T16:19:49.152Z,24.80
2018-06-02T16:22:15.023Z,24.84
2018-06-02T16:24:40.948Z,24.97
2018-06-02T16:27:07.018Z,25.12
2018-06-02T16:29:33.036Z,25.18
2018-06-02T16:31:59.004Z,25.52
2018-06-02T16:34:24.875Z,25.96
2018-06-02T16:36:50.854Z,26.23
2018-06-02T16:39:17.088Z,26.33
2018-06-02T16:41:42.957Z,26.16
2018-06-02T16:44:08.833Z,25.89
2018-06-02T16:46:34.804Z,25.32
2018-06-02T16:49:00.705Z,25.12
2018-06-02T16:51:27.253Z,24.90
2018-06-02T16:53:53.164Z,24.60
2018-06-02T16:56:19.050Z,24.44
2018-06-02T16:58:44.941Z,24.52
2018-06-02T17:01:11.220Z,24.43
2018-06-02T17:03:37.103Z,24.35
2018-06-02T17:06:03.016Z,24.15
2018-06-02T17:08:29.022Z,24.13
2018-06-02T17:10:54.905Z,24.15
2018-06-02T17:13:20.789Z,24.25
2018-06-02T17:15:46.733Z,24.26
2018-06-02T17:18:12.699Z,24.07
2018-06-02T17:20:38.556Z,24.01
2018-06-02T17:23:05.360Z,23.98
2018-06-02T17:25:31.255Z,23.84
2018-06-02T17:27:58.160Z,23.68
2018-06-02T17:30:24.223Z,23.65
2018-06-02T17:32:50.112Z,23.53
2018-06-02T17:35:16.005Z,23.54
2018-06-02T17:37:41.927Z,23.41
2018-06-02T17:40:08.713Z,23.43
2018-06-02T17:42:34.694Z,23.31
2018-06-02T17:45:00.887Z,23.15
2018-06-02T17:47:26.768Z,23.12
2018-06-02T17:49:52.676Z,23.00
2018-06-02T17:52:18.592Z,22.99
2018-06-02T17:54:44.504Z,23.00
2018-06-02T17:57:11.119Z,22.97
2018-06-02T17:59:37.071Z,22.97
2018-06-02T18:02:02.960Z,23.01
2018-06-02T18:04:28.847Z,22.90
2018-06-02T18:06:54.792Z,22.97
2018-06-02T18:09:20.788Z,22.96
2018-06-02T18:11:46.749Z,22.96
2018-06-02T18:14:12.671Z,22.93
2018-06-02T18:16:38.564Z,22.88
2018-06-02T18:19:04.532Z,22.86
2018-06-02T18:21:30.532Z,22.76
2018-06-02T18:23:56.428Z,22.72
2018-06-02T18:26:23.099Z,22.69
2018-06-02T18:28:49.033Z,22.66
2018-06-02T18:31:14.930Z,22.63
2018-06-02T18:33:40.803Z,22.60
2018-06-02T18:36:06.708Z,22.51
2018-06-02T18:38:32.719Z,22.48
2018-06-02T18:40:58.594Z,22.56
2018-06-02T18:43:25.470Z,22.51
2018-06-02T18:45:51.386Z,22.51
2018-06-02T18:48:17.308Z,22.58
2018-06-02T18:50:43.240Z,22.46
2018-06-02T18:53:09.146Z,22.34
2018-06-02T18:55:35.033Z,22.42
2018-06-02T18:58:01.015Z,22.32
2018-06-02T19:00:26.913Z,22.32
2018-06-02T19:02:52.816Z,22.32
2018-06-02T19:05:18.813Z,22.28
2018-06-02T19:07:44.730Z,22.24
2018-06-02T19:10:10.600Z,22.25
2018-06-02T19:12:36.558Z,22.21
2018-06-02T19:15:02.551Z,22.13
2018-06-02T19:17:28.531Z,22.20
2018-06-02T19:19:54.777Z,22.08
2018-06-02T19:22:20.687Z,22.05
2018-06-02T19:24:46.561Z,22.15
2018-06-02T19:27:13.052Z,22.11
2018-06-02T19:29:38.981Z,22.07
2018-06-02T19:32:04.860Z,21.99
2018-06-02T19:34:30.788Z,22.02
2018-06-02T19:36:56.659Z,21.95
2018-06-02T19:39:23.459Z,21.86
2018-06-02T19:41:49.452Z,21.79
2018-06-02T19:44:15.333Z,21.74
2018-06-02T19:46:42.137Z,21.68
2018-06-02T19:49:08.139Z,21.69
2018-06-02T19:51:34.003Z,21.68
2018-06-02T19:53:59.893Z,21.75
2018-06-02T19:56:25.855Z,21.71
2018-06-02T19:58:51.706Z,21.64
2018-06-02T20:01:17.619Z,21.70
2018-06-02T20:03:43.512Z,21.63
2018-06-02T20:06:09.384Z,21.73
2018-06-02T20:08:35.356Z,21.56
2018-06-02T20:11:01.279Z,21.59
2018-06-02T20:13:27.544Z,21.61
2018-06-02T20:15:53.420Z,21.56
2018-06-02T20:18:19.676Z,21.50
2018-06-02T20:20:46.730Z,21.47
2018-06-02T20:23:12.632Z,21.43
2018-06-02T20:25:38.552Z,21.42
2018-06-02T20:28:04.516Z,21.39
2018-06-02T20:30:30.621Z,21.37
2018-06-02T20:32:56.569Z,21.40
2018-06-02T20:35:22.500Z,21.38
2018-06-02T20:37:48.404Z,21.30
2018-06-02T20:40:14.323Z,21.38
2018-06-02T20:42:40.295Z,21.32
2018-06-02T20:45:06.193Z,21.36
2018-06-02T20:47:33.480Z,21.38
2018-06-02T20:49:59.356Z,21.34
2018-06-02T20:52:25.367Z,21.32
2018-06-02T20:54:51.291Z,21.33
2018-06-02T20:57:17.231Z,21.22
2018-06-02T20:59:43.133Z,21.26
2018-06-02T21:02:09.054Z,21.19
2018-06-02T21:04:34.928Z,21.31
2018-06-02T21:07:00.817Z,21.29
2018-06-02T21:09:26.753Z,21.21
2018-06-02T21:11:52.770Z,21.21
2018-06-02T21:14:18.654Z,21.31
2018-06-02T21:16:44.563Z,21.33
2018-06-02T21:19:10.525Z,21.20
2018-06-02T21:21:36.482Z,21.22
2018-06-02T21:24:02.400Z,21.24
2018-06-02T21:26:29.087Z,21.22
2018-06-02T21:28:55.570Z,21.28
2018-06-02T21:31:21.516Z,21.18
2018-06-02T21:33:47.457Z,21.17
2018-06-02T21:36:13.356Z,21.07
2018-06-02T21:38:39.269Z,21.18
2018-06-02T21:41:05.153Z,21.15
2018-06-02T21:43:32.038Z,21.05
2018-06-02T21:45:57.996Z,21.17
2018-06-02T21:48:23.876Z,21.08
2018-06-02T21:50:49.783Z,21.01
2018-06-02T21:53:16.753Z,21.02
2018-06-02T21:55:42.652Z,21.04
2018-06-02T21:58:08.821Z,20.97
2018-06-02T22:00:34.733Z,20.95
2018-06-02T22:03:00.619Z,20.94
2018-06-02T22:05:26.502Z,20.92
2018-06-02T22:07:52.452Z,20.89
2018-06-02T22:10:18.324Z,20.86
2018-06-02T22:12:44.244Z,20.76
2018-06-02T22:15:10.205Z,20.81
2018-06-02T22:17:36.651Z,20.73
2018-06-02T22:20:02.558Z,20.71
2018-06-02T22:22:28.522Z,20.75
2018-06-02T22:24:54.431Z,20.70
2018-06-02T22:27:20.317Z,20.82
2018-06-02T22:29:47.360Z,20.63
2018-06-02T22:32:13.252Z,20.67
2018-06-02T22:34:39.126Z,20.69
2018-06-02T22:37:05.043Z,20.71
2018-06-02T22:39:30.924Z,20.73
2018-06-02T22:41:56.802Z,20.69
2018-06-02T22:44:22.811Z,20.68
2018-06-02T22:46:48.698Z,20.60
2018-06-02T22:49:14.583Z,20.70
2018-06-02T22:51:52.935Z,20.73
2018-06-02T22:54:18.875Z,20.68
2018-06-02T22:56:45.048Z,20.58
2018-06-02T22:59:11.009Z,20.60
2018-06-02T23:01:36.993Z,20.59
2018-06-02T23:04:02.873Z,20.63
2018-06-02T23:06:28.842Z,20.62
2018-06-02T23:08:54.800Z,20.64
2018-06-02T23:11:20.710Z,20.69
2018-06-02T23:13:46.634Z,20.66
2018-06-02T23:16:12.536Z,20.64
2018-06-02T23:18:38.413Z,20.60
2018-06-02T23:21:04.419Z,20.56
2018-06-02T23:23:30.380Z,20.57
2018-06-02T23:25:56.518Z,20.60
2018-06-02T23:28:22.407Z,20.62
2018-06-02T23:30:48.317Z,20.54
2018-06-02T23:33:14.196Z,20.61
2018-06-02T23:35:40.385Z,20.46
2018-06-02T23:38:06.300Z,20.48
2018-06-02T23:40:32.180Z,20.39
2018-06-02T23:42:58.117Z,20.38
2018-06-02T23:45:24.013Z,20.34
2018-06-02T23:47:49.922Z,20.38
2018-06-02T23:50:15.852Z,20.27
2018-06-02T23:52:41.749Z,20.24
2018-06-02T23:55:07.633Z,20.31
2018-06-02T23:57:33.571Z,20.34
2018-06-02T23:59:59.473Z,20.23
